createdAt,value
2022-12-22T00:00:55.336Z,99563.38
2022-12-22T00:06:16.556Z,99584.44
2022-12-22T00:11:38.299Z,99576.50
2022-12-22T00:16:59.586Z,99588.25
2022-12-22T00:22:26.248Z,99580.28
2022-12-22T00:27:49.147Z,99597.13
2022-12-22T00:33:10.186Z,99576.16
2022-12-22T00:38:36.534Z,99618.19
2022-12-22T00:43:57.765Z,99619.06
2022-12-22T00:49:19.343Z,99628.72
2022-12-22T00:54:41.860Z,99644.84
2022-12-22T01:00:02.965Z,99659.69
2022-12-22T01:05:25.375Z,99667.22
2022-12-22T01:10:46.536Z,99681.09
2022-12-22T01:16:08.023Z,99690.09
2022-12-22T01:21:29.627Z,99699.50
2022-12-22T01:26:50.953Z,99710.16
2022-12-22T01:32:11.849Z,99725.75
2022-12-22T01:37:32.942Z,99710.50
2022-12-22T01:42:54.110Z,99749.19
2022-12-22T01:48:15.407Z,99763.16
2022-12-22T01:53:44.825Z,99783.28
2022-12-22T01:59:10.900Z,99796.16
2022-12-22T02:04:32.036Z,99835.50
2022-12-22T02:10:23.923Z,99851.41
2022-12-22T02:15:52.226Z,99878.56
2022-12-22T02:21:17.180Z,99890.84
2022-12-22T02:26:51.437Z,99906.88
2022-12-22T02:32:12.404Z,99923.59
2022-12-22T02:38:03.232Z,99932.13
2022-12-22T02:43:52.710Z,99979.25
2022-12-22T02:49:18.185Z,99997.63
2022-12-22T02:54:40.653Z,99964.44
2022-12-22T03:00:01.624Z,100039.66
2022-12-22T03:05:24.448Z,100047.38
2022-12-22T03:10:45.763Z,100088.53
2022-12-22T03:16:07.128Z,100113.97
2022-12-22T03:21:28.226Z,100143.78
2022-12-22T03:26:31.121Z,100156.91
2022-12-22T03:31:33.947Z,100188.81
2022-12-22T03:36:36.681Z,100203.19
2022-12-22T03:41:57.829Z,100234.41
2022-12-22T03:47:00.621Z,100259.81
2022-12-22T03:52:03.457Z,100281.50
2022-12-22T03:57:07.585Z,100294.81
2022-12-22T04:02:10.319Z,100314.41
2022-12-22T04:07:13.095Z,100322.75
2022-12-22T04:12:34.082Z,100368.72
2022-12-22T04:17:36.810Z,100389.72
2022-12-22T04:22:39.471Z,100401.09
2022-12-22T04:27:42.164Z,100417.03
2022-12-22T04:32:44.982Z,100442.03
2022-12-22T04:37:47.680Z,100466.41
2022-12-22T04:42:50.418Z,100475.72
2022-12-22T04:47:53.081Z,100494.41
2022-12-22T04:52:55.736Z,100501.50
2022-12-22T04:57:58.408Z,100506.63
2022-12-22T05:03:01.495Z,100536.44
2022-12-22T05:08:04.984Z,100555.78
2022-12-22T05:13:07.828Z,100558.47
2022-12-22T05:18:10.563Z,100567.13
2022-12-22T05:23:13.343Z,100555.72
2022-12-22T05:28:16.108Z,100602.50
2022-12-22T05:33:18.958Z,100623.78
2022-12-22T05:38:21.583Z,100639.63
2022-12-22T05:43:24.278Z,100640.81
2022-12-22T05:48:32.151Z,100669.44
2022-12-22T05:53:37.610Z,100688.44
2022-12-22T05:58:40.357Z,100685.72
2022-12-22T06:03:43.195Z,100728.56
2022-12-22T06:08:46.103Z,100733.47
2022-12-22T06:13:51.309Z,100754.56
2022-12-22T06:18:53.963Z,100762.28
2022-12-22T06:23:56.703Z,100784.84
2022-12-22T06:28:59.348Z,100795.72
2022-12-22T06:34:02.038Z,100817.03
2022-12-22T06:39:05.511Z,100838.00
2022-12-22T06:44:08.262Z,100817.25
2022-12-22T06:49:10.970Z,100853.28
2022-12-22T06:54:13.947Z,100831.59
2022-12-22T06:59:16.796Z,100893.91
2022-12-22T07:04:20.985Z,100906.91
2022-12-22T07:09:23.736Z,100915.03
2022-12-22T07:14:26.397Z,100925.28
2022-12-22T07:19:29.189Z,100937.94
2022-12-22T07:24:31.924Z,100991.06
2022-12-22T07:29:36.551Z,100976.06
2022-12-22T07:34:39.231Z,100983.56
2022-12-22T07:39:41.901Z,100990.69
2022-12-22T07:44:44.541Z,101007.03
2022-12-22T07:50:05.659Z,101000.00
2022-12-22T07:55:09.255Z,101007.91
2022-12-22T08:00:12.488Z,101037.94
2022-12-22T08:05:15.076Z,101049.75
2022-12-22T08:10:19.196Z,101068.06
2022-12-22T08:15:21.881Z,101077.53
2022-12-22T08:20:24.579Z,101087.13
2022-12-22T08:25:27.248Z,101094.88
2022-12-22T08:30:30.229Z,101092.84
2022-12-22T08:35:33.316Z,101105.44
2022-12-22T08:40:36.164Z,101114.00
2022-12-22T08:45:38.950Z,101126.59
2022-12-22T08:50:41.672Z,101093.53
2022-12-22T08:55:54.874Z,101140.44
2022-12-22T09:00:58.230Z,101150.66
2022-12-22T09:06:04.261Z,101143.81
2022-12-22T09:11:06.958Z,101171.75
2022-12-22T09:16:10.671Z,101169.13
2022-12-22T09:21:13.285Z,101184.25
2022-12-22T09:26:18.905Z,101200.19
2022-12-22T09:31:23.316Z,101206.91
2022-12-22T09:36:29.264Z,101209.44
2022-12-22T09:41:56.536Z,101216.81
2022-12-22T09:47:02.462Z,101225.41
2022-12-22T09:52:05.704Z,101215.88
2022-12-22T09:57:13.015Z,101243.34
2022-12-22T10:02:46.099Z,101245.09
2022-12-22T10:07:48.907Z,101256.03
2022-12-22T10:12:52.889Z,101259.59
2022-12-22T10:18:12.467Z,101256.81
2022-12-22T10:23:19.427Z,101270.63
2022-12-22T10:28:33.423Z,101271.97
2022-12-22T10:33:41.241Z,101275.81
2022-12-22T10:39:13.474Z,101284.41
2022-12-22T10:44:16.091Z,101283.53
2022-12-22T10:54:36.856Z,101293.16
2022-12-22T10:59:55.984Z,101300.19
2022-12-22T11:05:12.215Z,101314.56
2022-12-22T11:10:14.955Z,101319.91
2022-12-22T11:15:29.249Z,101319.41
2022-12-22T11:20:50.458Z,101346.09
2022-12-22T11:26:50.385Z,101339.19
2022-12-22T11:32:07.990Z,101361.56
2022-12-22T11:37:10.628Z,101355.75
2022-12-22T11:42:33.209Z,101351.72
2022-12-22T11:47:50.995Z,101367.66
2022-12-22T11:53:06.930Z,101370.63
2022-12-22T11:58:24.221Z,101381.56
2022-12-22T12:03:50.912Z,101395.06
2022-12-22T12:09:19.929Z,101400.69
2022-12-22T12:15:00.954Z,101402.44
2022-12-22T12:20:33.267Z,101413.97
2022-12-22T12:25:57.832Z,101407.28
2022-12-22T12:31:01.482Z,101427.28
2022-12-22T12:36:24.925Z,101437.16
2022-12-22T12:41:29.513Z,101432.59
2022-12-22T12:46:44.114Z,101434.00
2022-12-22T12:51:50.352Z,101434.59
2022-12-22T12:56:59.262Z,101454.97
2022-12-22T13:02:02.204Z,101465.03
2022-12-22T13:07:05.543Z,101464.84
2022-12-22T13:12:41.259Z,101477.66
2022-12-22T13:17:50.592Z,101483.16
2022-12-22T13:22:57.882Z,101498.81
2022-12-22T13:28:00.697Z,101510.94
2022-12-22T13:33:03.509Z,101512.75
2022-12-22T13:38:06.211Z,101512.06
2022-12-22T13:43:16.383Z,101528.44
2022-12-22T13:48:29.425Z,101537.88
2022-12-22T13:59:32.580Z,101550.66
2022-12-22T14:04:36.840Z,101565.50
2022-12-22T14:09:47.339Z,101571.38
2022-12-22T14:14:51.793Z,101592.75
2022-12-22T14:19:56.805Z,101596.84
2022-12-22T14:25:02.305Z,101611.38
2022-12-22T14:30:16.092Z,101614.25
2022-12-22T14:35:21.598Z,101629.97
2022-12-22T14:40:34.700Z,101636.13
2022-12-22T14:45:37.433Z,101645.88
2022-12-22T14:50:49.173Z,101644.41
2022-12-22T14:55:52.309Z,101645.53
2022-12-22T15:01:27.030Z,101641.56
2022-12-22T15:06:29.838Z,101658.56
2022-12-22T15:11:33.457Z,101645.91
2022-12-22T15:16:36.042Z,101672.41
2022-12-22T15:21:38.878Z,101676.91
2022-12-22T15:26:42.333Z,101678.25
2022-12-22T15:31:44.779Z,101683.84
2022-12-22T15:36:48.024Z,101693.00
2022-12-22T15:41:50.759Z,101694.34
2022-12-22T15:46:57.746Z,101704.19
2022-12-22T15:52:02.562Z,101710.69
2022-12-22T15:57:05.296Z,101697.06
2022-12-22T16:02:13.034Z,101711.78
2022-12-22T16:07:16.050Z,101717.34
2022-12-22T16:12:19.899Z,101723.19
2022-12-22T16:17:24.910Z,101714.97
2022-12-22T16:22:34.044Z,101748.94
2022-12-22T16:27:36.837Z,101742.25
2022-12-22T16:32:40.427Z,101742.25
2022-12-22T16:37:43.442Z,101742.69
2022-12-22T16:48:19.831Z,101765.38
2022-12-22T16:53:22.696Z,101772.75
2022-12-22T16:58:25.485Z,101777.50
2022-12-22T17:03:29.269Z,101783.78
2022-12-22T17:08:37.306Z,101796.72
2022-12-22T17:13:40.211Z,101756.59
2022-12-22T17:18:42.883Z,101766.41
2022-12-22T17:23:49.009Z,101817.69
2022-12-22T17:28:51.714Z,101818.34
2022-12-22T17:33:54.420Z,101827.50
2022-12-22T17:38:57.095Z,101831.97
2022-12-22T17:43:59.878Z,101817.22
2022-12-22T17:49:02.615Z,101853.34
2022-12-22T17:54:05.555Z,101849.75
2022-12-22T17:59:12.401Z,101865.53
2022-12-22T18:04:15.701Z,101860.81
2022-12-22T18:09:22.301Z,101875.53
2022-12-22T18:14:25.095Z,101885.78
2022-12-22T18:19:27.843Z,101882.81
2022-12-22T18:24:30.633Z,101908.91
2022-12-22T18:29:33.316Z,101904.84
2022-12-22T18:34:36.949Z,101915.75
2022-12-22T18:39:39.818Z,101922.19
2022-12-22T18:44:42.479Z,101915.66
2022-12-22T18:49:45.558Z,101931.38
2022-12-22T18:54:48.283Z,101934.88
2022-12-22T18:59:51.163Z,101941.97
2022-12-22T19:04:54.685Z,101951.75
2022-12-22T19:09:57.401Z,101962.09
2022-12-22T19:15:04.147Z,101960.91
2022-12-22T19:20:10.606Z,101963.59
2022-12-22T19:25:18.280Z,101986.81
2022-12-22T19:30:23.595Z,101992.44
2022-12-22T19:35:26.401Z,102000.72
2022-12-22T19:40:31.929Z,102019.00
2022-12-22T19:45:35.934Z,102018.34
2022-12-22T19:50:38.657Z,102039.88
2022-12-22T19:55:44.739Z,102034.91
2022-12-22T20:00:47.953Z,102035.22
2022-12-22T20:05:50.908Z,102050.81
2022-12-22T20:10:58.359Z,102058.47
2022-12-22T20:16:01.749Z,102055.53
2022-12-22T20:21:07.216Z,102074.66
2022-12-22T20:26:17.266Z,102081.34
2022-12-22T20:31:22.444Z,102101.56
2022-12-22T20:36:32.158Z,102104.00
2022-12-22T20:41:34.874Z,102112.38
2022-12-22T20:46:37.693Z,102107.19
2022-12-22T20:51:40.425Z,102112.59
2022-12-22T20:56:45.434Z,102126.78
2022-12-22T21:01:49.884Z,102135.44
2022-12-22T21:06:54.798Z,102133.63
2022-12-22T21:11:57.480Z,102148.97
2022-12-22T21:17:00.384Z,102120.38
2022-12-22T21:22:03.163Z,102165.00
2022-12-22T21:27:06.032Z,102180.56
2022-12-22T21:32:09.963Z,102190.25
2022-12-22T21:37:18.926Z,102200.44
2022-12-22T21:42:21.544Z,102212.66
2022-12-22T21:47:24.349Z,102217.19
2022-12-22T21:52:27.422Z,102229.25
2022-12-22T21:57:30.012Z,102220.13
2022-12-22T22:02:32.791Z,102197.63
2022-12-22T22:07:35.379Z,102251.22
2022-12-22T22:12:38.386Z,102249.56
2022-12-22T22:17:41.921Z,102245.44
2022-12-22T22:22:45.715Z,102256.16
2022-12-22T22:27:49.231Z,102268.16
2022-12-22T22:32:52.684Z,102269.03
2022-12-22T22:37:56.254Z,102269.72
2022-12-22T22:42:58.894Z,102277.09
2022-12-22T22:48:06.289Z,102279.66
2022-12-22T22:53:12.422Z,102244.66
2022-12-22T22:58:15.040Z,102295.31
2022-12-22T23:03:17.904Z,102284.00
2022-12-22T23:08:20.732Z,102301.22
2022-12-22T23:13:23.733Z,102305.44
2022-12-22T23:18:26.589Z,102296.88
2022-12-22T23:23:30.463Z,102307.78
2022-12-22T23:28:34.353Z,102323.34
2022-12-22T23:33:37.013Z,102311.91
2022-12-22T23:38:39.518Z,102322.72
2022-12-22T23:43:41.927Z,102333.22
2022-12-22T23:48:44.890Z,102335.44
2022-12-22T23:53:47.714Z,102335.53
2022-12-22T23:58:54.481Z,102347.22
